createdAt,value
2017-06-20T00:00:37.848Z,18.65
2017-06-20T00:01:37.891Z,18.61
2017-06-20T00:02:37.990Z,18.68
2017-06-20T00:03:38.008Z,18.66
2017-06-20T00:04:38.008Z,18.61
2017-06-20T00:05:38.122Z,18.61
2017-06-20T00:06:38.107Z,18.69
2017-06-20T00:07:38.127Z,18.63
2017-06-20T00:08:38.156Z,18.6
2017-06-20T00:09:38.158Z,18.56
2017-06-20T00:10:38.226Z,18.61
2017-06-20T00:11:38.299Z,18.57
2017-06-20T00:12:38.294Z,18.68
2017-06-20T00:13:38.368Z,18.53
2017-06-20T00:14:38.371Z,18.59
2017-06-20T00:15:38.404Z,18.6
2017-06-20T00:16:38.476Z,18.56
2017-06-20T00:17:38.476Z,18.51
2017-06-20T00:18:38.516Z,18.56
2017-06-20T00:19:38.582Z,18.57
2017-06-20T00:20:38.592Z,18.5
2017-06-20T00:21:38.671Z,18.56
2017-06-20T00:22:38.690Z,18.51
2017-06-20T00:23:38.732Z,18.57
2017-06-20T00:24:38.744Z,18.45
2017-06-20T00:25:38.801Z,18.39
2017-06-20T00:26:38.868Z,18.42
2017-06-20T00:27:38.851Z,18.42
2017-06-20T00:28:38.892Z,18.34
2017-06-20T00:29:38.933Z,18.42
2017-06-20T00:30:38.968Z,18.36
2017-06-20T00:31:39.008Z,18.38
2017-06-20T00:32:39.015Z,18.27
2017-06-20T00:33:39.105Z,18.26
2017-06-20T00:34:39.118Z,18.36
2017-06-20T00:35:39.141Z,18.32
2017-06-20T00:36:39.231Z,18.32
2017-06-20T00:37:39.195Z,18.21
2017-06-20T00:38:39.261Z,18.24
2017-06-20T00:39:39.301Z,18.2
2017-06-20T00:40:39.337Z,18.29
2017-06-20T00:41:39.373Z,18.24
2017-06-20T00:42:39.397Z,18.23
2017-06-20T00:43:39.462Z,18.21
2017-06-20T00:44:39.472Z,18.16
2017-06-20T00:45:39.516Z,18.24
2017-06-20T00:46:39.611Z,18.21
2017-06-20T00:47:39.596Z,18.13
2017-06-20T00:48:39.623Z,18.14
2017-06-20T00:49:39.660Z,18.14
2017-06-20T00:50:39.690Z,18.14
2017-06-20T00:51:39.700Z,18.1
2017-06-20T00:52:39.789Z,18.13
2017-06-20T00:53:39.808Z,18.13
2017-06-20T00:54:39.871Z,18.11
2017-06-20T00:55:39.907Z,18.17
2017-06-20T00:56:39.889Z,18.19
2017-06-20T00:57:39.973Z,18.11
2017-06-20T00:58:39.993Z,18.06
2017-06-20T00:59:40.009Z,18.03
2017-06-20T01:00:40.096Z,18.08
2017-06-20T01:01:40.103Z,18.05
2017-06-20T01:02:40.141Z,17.99
2017-06-20T01:03:40.253Z,17.96
2017-06-20T01:04:40.186Z,18.02
2017-06-20T01:05:40.337Z,17.99
2017-06-20T01:06:40.306Z,17.99
2017-06-20T01:07:40.347Z,18.08
2017-06-20T01:08:40.406Z,17.98
2017-06-20T01:09:40.396Z,17.96
2017-06-20T01:10:40.397Z,17.94
2017-06-20T01:11:40.442Z,17.9
2017-06-20T01:12:40.476Z,17.86
2017-06-20T01:13:40.514Z,17.87
2017-06-20T01:14:40.604Z,17.87
2017-06-20T01:15:40.609Z,17.86
2017-06-20T01:16:40.655Z,17.9
2017-06-20T01:17:40.706Z,17.86
2017-06-20T01:18:40.696Z,17.87
2017-06-20T01:19:40.739Z,17.87
2017-06-20T01:20:40.799Z,17.83
2017-06-20T01:21:40.811Z,17.83
2017-06-20T01:22:40.865Z,17.87
2017-06-20T01:23:40.903Z,17.88
2017-06-20T01:24:40.942Z,17.81
2017-06-20T01:25:40.951Z,17.71
2017-06-20T01:26:40.981Z,17.81
2017-06-20T01:27:41.026Z,17.76
2017-06-20T01:28:41.104Z,17.76
2017-06-20T01:29:41.098Z,17.71
2017-06-20T01:30:41.160Z,17.69
2017-06-20T01:31:41.199Z,17.71
2017-06-20T01:32:41.234Z,17.74
2017-06-20T01:33:41.253Z,17.74
2017-06-20T01:34:41.280Z,17.73
2017-06-20T01:35:41.340Z,17.71
2017-06-20T01:36:41.414Z,17.65
2017-06-20T01:37:41.402Z,17.58
2017-06-20T01:38:41.473Z,17.57
2017-06-20T01:39:41.471Z,17.63
2017-06-20T01:40:41.495Z,17.52
2017-06-20T01:41:41.587Z,17.55
2017-06-20T01:42:41.618Z,17.55
2017-06-20T01:43:41.609Z,17.54
2017-06-20T01:44:41.663Z,17.6
2017-06-20T01:45:41.703Z,17.57
2017-06-20T01:46:41.765Z,17.6
2017-06-20T01:47:41.772Z,17.55
2017-06-20T01:48:41.803Z,17.52
2017-06-20T01:49:41.806Z,17.46
2017-06-20T01:50:41.913Z,17.52
2017-06-20T01:51:41.899Z,17.49
2017-06-20T01:52:41.973Z,17.49
2017-06-20T01:53:41.979Z,17.45
2017-06-20T01:54:42.025Z,17.38
2017-06-20T01:55:42.096Z,17.52
2017-06-20T01:56:42.099Z,17.46
2017-06-20T01:57:42.158Z,17.42
2017-06-20T01:58:42.223Z,17.5
2017-06-20T01:59:42.204Z,17.45
2017-06-20T02:00:42.269Z,17.42
2017-06-20T02:01:42.299Z,17.38
2017-06-20T02:02:42.315Z,17.38
2017-06-20T02:03:42.359Z,17.42
2017-06-20T02:04:42.413Z,17.46
2017-06-20T02:05:42.632Z,17.39
2017-06-20T02:06:42.463Z,17.36
2017-06-20T02:07:42.514Z,17.36
2017-06-20T02:08:42.558Z,17.3
2017-06-20T02:09:42.588Z,17.35
2017-06-20T02:10:42.603Z,17.31
2017-06-20T02:11:42.644Z,17.31
2017-06-20T02:12:42.650Z,17.36
2017-06-20T02:13:42.709Z,17.36
2017-06-20T02:14:42.762Z,17.35
2017-06-20T02:15:42.780Z,17.35
2017-06-20T02:16:42.817Z,17.31
2017-06-20T02:17:42.843Z,17.3
2017-06-20T02:18:42.922Z,17.3
2017-06-20T02:19:42.949Z,17.38
2017-06-20T02:20:42.942Z,17.35
2017-06-20T02:21:43.000Z,17.38
2017-06-20T02:22:43.015Z,17.28
2017-06-20T02:23:43.053Z,17.31
2017-06-20T02:24:43.109Z,17.35
2017-06-20T02:25:43.128Z,17.21
2017-06-20T02:26:43.201Z,17.27
2017-06-20T02:27:43.214Z,17.27
2017-06-20T02:28:43.226Z,17.25
2017-06-20T02:29:43.316Z,17.25
2017-06-20T02:30:43.297Z,17.15
2017-06-20T02:31:43.390Z,17.18
2017-06-20T02:32:43.445Z,17.2
2017-06-20T02:33:43.423Z,17.22
2017-06-20T02:34:43.467Z,17.25
2017-06-20T02:35:43.503Z,17.15
2017-06-20T02:36:43.570Z,17.12
2017-06-20T02:37:43.599Z,17.25
2017-06-20T02:38:43.626Z,17.25
2017-06-20T02:39:43.608Z,17.15
2017-06-20T02:40:43.714Z,17.18
2017-06-20T02:41:43.718Z,17.18
2017-06-20T02:42:43.785Z,17.21
2017-06-20T02:43:43.827Z,17.18
2017-06-20T02:44:43.822Z,17.24
2017-06-20T02:45:43.898Z,17.17
2017-06-20T02:46:43.923Z,17.13
2017-06-20T02:47:43.969Z,17.1
2017-06-20T02:48:43.961Z,17.09
2017-06-20T02:49:44.003Z,17.17
2017-06-20T02:50:44.023Z,17.17
2017-06-20T02:51:44.090Z,17.15
2017-06-20T02:52:44.111Z,17.09
2017-06-20T02:53:44.112Z,17.06
2017-06-20T02:54:44.216Z,17.09
2017-06-20T02:55:44.266Z,17.1
2017-06-20T02:56:44.249Z,17.13
2017-06-20T02:57:44.260Z,17.15
2017-06-20T02:58:44.330Z,17.17
2017-06-20T02:59:44.419Z,17.17
2017-06-20T03:00:44.408Z,17.1
2017-06-20T03:01:44.440Z,17.13
2017-06-20T03:02:44.486Z,17.12
2017-06-20T03:03:44.532Z,17.13
2017-06-20T03:04:44.551Z,17.07
2017-06-20T03:05:44.601Z,17.13
2017-06-20T03:06:44.602Z,17.1
2017-06-20T03:07:44.651Z,17.2
2017-06-20T03:08:44.720Z,17.1
2017-06-20T03:09:44.726Z,17.09
2017-06-20T03:10:44.793Z,17.18
2017-06-20T03:11:44.798Z,17.15
2017-06-20T03:12:44.853Z,17.13
2017-06-20T03:13:44.847Z,17.12
2017-06-20T03:14:44.928Z,17.13
2017-06-20T03:15:44.941Z,17.18
2017-06-20T03:16:44.949Z,17.25
2017-06-20T03:17:45.060Z,17.24
2017-06-20T03:18:45.044Z,17.25
2017-06-20T03:19:45.100Z,17.36
2017-06-20T03:20:45.120Z,17.31
2017-06-20T03:21:45.122Z,17.39
2017-06-20T03:22:45.212Z,17.22
2017-06-20T03:23:45.251Z,17.39
2017-06-20T03:24:45.228Z,17.36
2017-06-20T03:25:45.299Z,17.28
2017-06-20T03:26:45.365Z,17.31
2017-06-20T03:27:45.360Z,17.4
2017-06-20T03:28:45.433Z,17.42
2017-06-20T03:29:45.440Z,17.4
2017-06-20T03:30:45.448Z,17.42
2017-06-20T03:31:45.486Z,17.45
2017-06-20T03:32:45.517Z,17.49
2017-06-20T03:33:45.612Z,17.45
2017-06-20T03:34:45.645Z,17.31
2017-06-20T03:35:45.645Z,17.45
2017-06-20T03:36:45.747Z,17.4
2017-06-20T03:37:45.752Z,17.52
2017-06-20T03:38:45.755Z,17.5
2017-06-20T03:39:45.786Z,17.52
2017-06-20T03:40:45.844Z,17.49
2017-06-20T03:41:45.867Z,17.52
2017-06-20T03:42:45.904Z,17.6
2017-06-20T03:43:45.949Z,17.62
2017-06-20T03:44:45.949Z,17.62
2017-06-20T03:45:46.009Z,17.73
2017-06-20T03:46:46.060Z,17.69
2017-06-20T03:47:46.111Z,17.74
2017-06-20T03:48:46.083Z,17.71
2017-06-20T03:49:46.148Z,17.81
2017-06-20T03:50:46.194Z,17.76
2017-06-20T03:51:46.255Z,17.84
2017-06-20T03:52:46.287Z,17.8
2017-06-20T03:53:46.359Z,17.86
2017-06-20T03:54:46.362Z,17.83
2017-06-20T03:55:46.399Z,17.92
2017-06-20T03:56:46.410Z,17.86
2017-06-20T03:57:46.418Z,17.86
2017-06-20T03:58:46.525Z,18.02
2017-06-20T03:59:46.542Z,17.94
2017-06-20T04:00:46.536Z,18.01
2017-06-20T04:01:46.562Z,18.08
2017-06-20T04:02:46.597Z,18.13
2017-06-20T04:03:46.634Z,18.17
2017-06-20T04:04:46.678Z,18.2
2017-06-20T04:05:46.761Z,18.26
2017-06-20T04:06:46.731Z,18.32
2017-06-20T04:07:46.776Z,18.31
2017-06-20T04:08:46.802Z,18.42
2017-06-20T04:09:46.856Z,18.36
2017-06-20T04:10:46.890Z,18.39
2017-06-20T04:11:46.913Z,18.42
2017-06-20T04:12:46.958Z,18.56
2017-06-20T04:13:47.000Z,18.59
2017-06-20T04:14:47.030Z,18.87
2017-06-20T04:15:47.074Z,19.2
2017-06-20T04:16:47.102Z,19.8
2017-06-20T04:17:47.129Z,20.35
2017-06-20T04:18:47.181Z,20.93
2017-06-20T04:19:47.223Z,21.38
2017-06-20T04:20:47.256Z,21.74
2017-06-20T04:21:47.290Z,22.14
2017-06-20T04:22:47.320Z,22.3
2017-06-20T04:23:47.366Z,22.48
2017-06-20T04:24:47.391Z,22.79
2017-06-20T04:25:47.441Z,23.25
2017-06-20T04:26:47.486Z,23.79
2017-06-20T04:27:47.522Z,24.4
2017-06-20T04:28:47.556Z,25.02
2017-06-20T04:29:47.599Z,25.63
2017-06-20T04:30:47.637Z,26.2
2017-06-20T04:31:47.676Z,26.59
2017-06-20T04:32:47.706Z,27
2017-06-20T04:33:47.732Z,27.06
2017-06-20T04:34:47.795Z,26.79
2017-06-20T04:35:47.823Z,26.31
2017-06-20T04:36:47.852Z,25.79
2017-06-20T04:37:47.905Z,25.29
2017-06-20T04:38:47.934Z,24.7
2017-06-20T04:39:47.987Z,24.26
2017-06-20T04:40:48.027Z,23.92
2017-06-20T04:41:48.053Z,23.62
2017-06-20T04:42:48.104Z,23.38
2017-06-20T04:43:48.154Z,23.19
2017-06-20T04:44:48.182Z,23.03
2017-06-20T04:45:48.221Z,23.06
2017-06-20T04:46:48.259Z,23.16
2017-06-20T04:47:48.302Z,23.32
2017-06-20T04:48:48.340Z,23.47
2017-06-20T04:49:48.385Z,23.48
2017-06-20T04:50:48.426Z,23.45
2017-06-20T04:51:48.463Z,23.29
2017-06-20T04:52:48.504Z,23.28
2017-06-20T04:53:48.535Z,23.19
2017-06-20T04:54:48.553Z,23.19
2017-06-20T04:55:48.604Z,22.99
2017-06-20T04:56:48.644Z,22.97
2017-06-20T04:57:48.676Z,22.84
2017-06-20T04:58:48.736Z,22.99
2017-06-20T04:59:48.779Z,22.84
2017-06-20T05:00:48.828Z,22.86
2017-06-20T05:01:48.856Z,22.99
2017-06-20T05:02:48.904Z,22.97
2017-06-20T05:03:48.931Z,23.1
2017-06-20T05:04:48.975Z,23.12
2017-06-20T05:05:49.025Z,23.01
2017-06-20T05:06:49.056Z,23.07
2017-06-20T05:07:49.097Z,23.12
2017-06-20T05:08:49.136Z,23.18
2017-06-20T05:09:49.204Z,23.44
2017-06-20T05:10:49.204Z,23.79
2017-06-20T05:11:49.253Z,24.07
2017-06-20T05:12:49.295Z,24.19
2017-06-20T05:13:49.335Z,24.27
2017-06-20T05:14:49.355Z,24.4
2017-06-20T05:15:49.418Z,24.48
2017-06-20T05:16:49.452Z,24.89
2017-06-20T05:17:49.496Z,25.57
2017-06-20T05:18:49.539Z,26.24
2017-06-20T05:19:49.573Z,26.53
2017-06-20T05:20:49.606Z,26.54
2017-06-20T05:21:49.659Z,26.47
2017-06-20T05:22:49.702Z,26.24
2017-06-20T05:23:49.741Z,26
2017-06-20T05:24:49.769Z,25.88
2017-06-20T05:25:49.816Z,25.74
2017-06-20T05:26:49.844Z,25.75
2017-06-20T05:27:49.901Z,25.62
2017-06-20T05:28:49.966Z,25.52
2017-06-20T05:29:49.965Z,25.47
2017-06-20T05:30:50.031Z,25.41
2017-06-20T05:31:50.068Z,25.42
2017-06-20T05:32:50.099Z,25.3
2017-06-20T05:33:50.150Z,25.42
2017-06-20T05:34:50.187Z,25.49
2017-06-20T05:35:50.224Z,25.66
2017-06-20T05:36:50.247Z,25.82
2017-06-20T05:37:50.304Z,25.93
2017-06-20T05:38:50.349Z,26
2017-06-20T05:39:50.383Z,26.04
2017-06-20T05:40:50.427Z,26
2017-06-20T05:41:50.465Z,26.04
2017-06-20T05:42:50.517Z,25.94
2017-06-20T05:43:50.553Z,25.93
2017-06-20T05:44:50.599Z,25.99
2017-06-20T05:45:50.629Z,25.89
2017-06-20T05:46:50.659Z,25.82
2017-06-20T05:47:50.680Z,25.97
2017-06-20T05:48:50.720Z,26.04
2017-06-20T05:49:50.780Z,26.11
2017-06-20T05:50:50.832Z,26.3
2017-06-20T05:51:50.858Z,26.32
2017-06-20T05:52:50.914Z,26.3
2017-06-20T05:53:50.953Z,26.35
2017-06-20T05:54:50.978Z,26.35
2017-06-20T05:55:51.202Z,26.41
2017-06-20T05:56:51.048Z,26.41
2017-06-20T05:57:51.118Z,26.53
2017-06-20T05:58:51.163Z,26.69
2017-06-20T05:59:51.192Z,26.74
2017-06-20T06:00:51.244Z,27.01
2017-06-20T06:01:51.271Z,27.12
2017-06-20T06:02:51.319Z,27.19
2017-06-20T06:03:51.359Z,27.27
2017-06-20T06:04:51.398Z,27.28
2017-06-20T06:05:51.439Z,27.24
2017-06-20T06:06:51.476Z,27.3
2017-06-20T06:07:51.526Z,27.48
2017-06-20T06:08:51.562Z,27.93
2017-06-20T06:09:51.594Z,28.06
2017-06-20T06:10:51.639Z,28.16
2017-06-20T06:11:51.669Z,28.24
2017-06-20T06:12:51.738Z,28.41
2017-06-20T06:13:51.783Z,28.78
2017-06-20T06:14:51.791Z,29.38
2017-06-20T06:15:51.853Z,29.89
2017-06-20T06:16:51.890Z,30.37
2017-06-20T06:17:51.931Z,30.49
2017-06-20T06:18:51.978Z,30.6
2017-06-20T06:19:51.996Z,31
2017-06-20T06:20:52.062Z,31.47
2017-06-20T06:21:52.077Z,32.17
2017-06-20T06:22:52.148Z,33.06
2017-06-20T06:23:52.168Z,33.75
2017-06-20T06:24:52.222Z,34.18
2017-06-20T06:25:52.274Z,34.61
2017-06-20T06:26:52.313Z,34.84
2017-06-20T06:27:52.339Z,35.31
2017-06-20T06:28:52.412Z,35.99
2017-06-20T06:29:52.440Z,36.63
2017-06-20T06:30:52.485Z,37.07
2017-06-20T06:31:52.527Z,37.41
2017-06-20T06:32:52.559Z,37.62
2017-06-20T06:33:52.601Z,38.02
2017-06-20T06:34:52.655Z,38.55
2017-06-20T06:35:52.707Z,38.93
2017-06-20T06:36:52.747Z,39.4
2017-06-20T06:37:52.769Z,39.72
2017-06-20T06:38:52.836Z,40.18
2017-06-20T06:39:52.866Z,40.41
2017-06-20T06:40:52.923Z,40.85
2017-06-20T06:41:52.976Z,41.2
2017-06-20T06:42:53.023Z,41.42
2017-06-20T06:43:53.076Z,41.68
2017-06-20T06:44:53.102Z,41.82
2017-06-20T06:45:53.139Z,42.04
2017-06-20T06:46:53.189Z,42.44
2017-06-20T06:47:53.250Z,42.47
2017-06-20T06:48:53.292Z,42.48
2017-06-20T06:49:53.300Z,42.26
2017-06-20T06:50:53.350Z,42.03
2017-06-20T06:51:53.426Z,41.8
2017-06-20T06:52:53.472Z,41.68
2017-06-20T06:53:53.521Z,41.56
2017-06-20T06:54:53.573Z,41.4
2017-06-20T06:55:53.605Z,41.11
2017-06-20T06:56:53.658Z,40.97
2017-06-20T06:57:53.707Z,40.96
2017-06-20T06:58:53.751Z,41.13
2017-06-20T06:59:53.783Z,41.16
2017-06-20T07:00:53.830Z,41.18
2017-06-20T07:01:53.893Z,41.28
2017-06-20T07:02:53.939Z,41.56
2017-06-20T07:03:54.004Z,41.75
2017-06-20T07:04:54.030Z,41.82
2017-06-20T07:05:54.093Z,41.94
2017-06-20T07:06:54.126Z,42.04
2017-06-20T07:07:54.177Z,42.33
2017-06-20T07:08:54.224Z,42.61
2017-06-20T07:09:54.258Z,42.88
2017-06-20T07:10:54.326Z,43.04
2017-06-20T07:11:54.356Z,43.05
2017-06-20T07:12:54.384Z,43.16
2017-06-20T07:13:54.468Z,43.58
2017-06-20T07:14:54.506Z,43.85
2017-06-20T07:15:54.554Z,43.95
2017-06-20T07:16:54.581Z,44
2017-06-20T07:17:54.644Z,44.07
2017-06-20T07:18:54.667Z,43.89
2017-06-20T07:19:54.702Z,43.7
2017-06-20T07:20:54.778Z,43.71
2017-06-20T07:21:54.837Z,43.59
2017-06-20T07:22:54.868Z,43.64
2017-06-20T07:23:54.915Z,43.74
2017-06-20T07:24:54.987Z,43.8
2017-06-20T07:25:55.034Z,43.93
2017-06-20T07:26:55.059Z,43.66
2017-06-20T07:27:55.126Z,43.37
2017-06-20T07:28:55.178Z,43.11
2017-06-20T07:29:55.203Z,43.15
2017-06-20T07:30:55.264Z,43.33
2017-06-20T07:31:55.294Z,43.57
2017-06-20T07:32:55.365Z,43.85
2017-06-20T07:33:55.406Z,43.97
2017-06-20T07:34:55.444Z,44.24
2017-06-20T07:35:55.506Z,44.4
2017-06-20T07:36:55.555Z,44.6
2017-06-20T07:37:55.605Z,44.69
2017-06-20T07:38:55.651Z,44.76
2017-06-20T07:39:55.644Z,44.91
2017-06-20T07:40:55.746Z,45.07
2017-06-20T07:41:55.770Z,45.24
2017-06-20T07:42:55.842Z,45.37
2017-06-20T07:43:55.889Z,45.59
2017-06-20T07:44:55.943Z,46
2017-06-20T07:45:55.984Z,46.3
2017-06-20T07:46:56.035Z,46.42
2017-06-20T07:47:56.081Z,46.82
2017-06-20T07:48:56.117Z,47.12
2017-06-20T07:49:56.191Z,47.14
2017-06-20T07:50:56.214Z,47.01
2017-06-20T07:51:56.316Z,46.95
2017-06-20T07:52:56.320Z,47.07
2017-06-20T07:53:56.383Z,46.92
2017-06-20T07:54:56.434Z,46.42
2017-06-20T07:55:56.482Z,45.94
2017-06-20T07:56:56.517Z,45.66
2017-06-20T07:57:56.569Z,45.75
2017-06-20T07:58:56.605Z,46.01
2017-06-20T07:59:56.670Z,46.45
2017-06-20T08:00:56.715Z,46.89
2017-06-20T08:01:56.774Z,47.19
2017-06-20T08:02:56.794Z,47.36
2017-06-20T08:03:56.865Z,47.68
2017-06-20T08:04:56.916Z,47.93
2017-06-20T08:05:56.953Z,48.37
2017-06-20T08:06:57.022Z,48.59
2017-06-20T08:07:57.061Z,48.73
2017-06-20T08:08:57.124Z,49.04
2017-06-20T08:09:57.165Z,49.26
2017-06-20T08:10:57.217Z,49.33
2017-06-20T08:11:57.264Z,49.44
2017-06-20T08:12:57.322Z,49.53
2017-06-20T08:13:57.363Z,49.52
2017-06-20T08:14:57.416Z,49.34
2017-06-20T08:15:57.464Z,49.39
2017-06-20T08:16:57.517Z,49.23
2017-06-20T08:17:57.576Z,49.37
2017-06-20T08:18:57.617Z,49.61
2017-06-20T08:19:57.669Z,49.55
2017-06-20T08:20:57.722Z,49.53
2017-06-20T08:21:57.738Z,49.63
2017-06-20T08:22:57.816Z,49.67
2017-06-20T08:23:57.855Z,49.67
2017-06-20T08:24:57.923Z,49.65
2017-06-20T08:25:57.974Z,49.76
2017-06-20T08:26:58.022Z,49.82
2017-06-20T08:27:58.083Z,49.68
2017-06-20T08:28:58.115Z,49.77
2017-06-20T08:29:58.185Z,49.9
2017-06-20T08:30:58.247Z,50.05
2017-06-20T08:31:58.285Z,49.96
2017-06-20T08:32:58.315Z,50.05
2017-06-20T08:33:58.387Z,50.02
2017-06-20T08:34:58.439Z,50.08
2017-06-20T08:35:58.488Z,50.21
2017-06-20T08:36:58.532Z,50.4
2017-06-20T08:37:58.587Z,50.25
2017-06-20T08:38:58.638Z,50.15
2017-06-20T08:39:58.689Z,50.25
2017-06-20T08:40:58.737Z,50.11
2017-06-20T08:41:58.796Z,50.09
2017-06-20T08:42:58.843Z,50.14
2017-06-20T08:43:58.900Z,50.11
2017-06-20T08:44:58.951Z,50.13
2017-06-20T08:45:58.995Z,50.08
2017-06-20T08:46:59.052Z,50.03
2017-06-20T08:47:59.090Z,49.94
2017-06-20T08:48:59.154Z,49.96
2017-06-20T08:49:59.204Z,50.03
2017-06-20T08:50:59.253Z,50.3
2017-06-20T08:51:59.292Z,50.41
2017-06-20T08:52:59.360Z,50.35
2017-06-20T08:53:59.408Z,50.24
2017-06-20T08:54:59.463Z,49.86
2017-06-20T08:55:59.512Z,49.53
2017-06-20T08:56:59.575Z,49.23
2017-06-20T08:57:59.604Z,48.85
2017-06-20T08:58:59.675Z,48.57
2017-06-20T08:59:59.721Z,48.6
2017-06-20T09:00:59.773Z,48.61
2017-06-20T09:01:59.813Z,48.75
2017-06-20T09:02:59.875Z,48.73
2017-06-20T09:03:59.915Z,48.87
2017-06-20T09:04:59.982Z,48.92
2017-06-20T09:06:00.080Z,48.78
2017-06-20T09:07:00.091Z,48.82
2017-06-20T09:08:00.134Z,49.13
2017-06-20T09:09:00.183Z,49.39
2017-06-20T09:10:00.238Z,49.61
2017-06-20T09:11:00.292Z,49.76
2017-06-20T09:12:00.339Z,49.67
2017-06-20T09:13:00.382Z,49.67
2017-06-20T09:14:00.456Z,49.63
2017-06-20T09:15:00.503Z,49.49
2017-06-20T09:16:00.557Z,49.51
2017-06-20T09:17:00.602Z,49.44
2017-06-20T09:18:00.659Z,49.37
2017-06-20T09:19:00.703Z,49.27
2017-06-20T09:20:00.761Z,49.29
2017-06-20T09:21:00.794Z,49.13
2017-06-20T09:22:00.858Z,49.13
2017-06-20T09:23:00.912Z,49.23
2017-06-20T09:24:00.963Z,49.42
2017-06-20T09:25:01.019Z,49.63
2017-06-20T09:26:01.054Z,49.48
2017-06-20T09:27:01.097Z,49.27
2017-06-20T09:28:01.170Z,49.06
2017-06-20T09:29:01.213Z,48.76
2017-06-20T09:30:01.279Z,48.75
2017-06-20T09:31:01.312Z,48.88
2017-06-20T09:32:01.379Z,48.92
2017-06-20T09:33:01.435Z,48.88
2017-06-20T09:34:01.483Z,49.04
2017-06-20T09:35:01.526Z,49.1
2017-06-20T09:36:01.594Z,49.36
2017-06-20T09:37:01.644Z,49.58
2017-06-20T09:38:01.671Z,49.74
2017-06-20T09:39:01.742Z,50.03
2017-06-20T09:40:01.773Z,49.98
2017-06-20T09:41:01.850Z,49.95
2017-06-20T09:42:01.903Z,50.01
2017-06-20T09:43:01.949Z,50.03
2017-06-20T09:44:02.010Z,49.96
2017-06-20T09:45:02.059Z,49.79
2017-06-20T09:46:02.111Z,49.55
2017-06-20T09:47:02.152Z,49.36
2017-06-20T09:48:02.214Z,49.29
2017-06-20T09:49:02.253Z,49.14
2017-06-20T09:50:02.325Z,49.03
2017-06-20T09:51:02.374Z,48.31
2017-06-20T09:52:02.425Z,47.08
2017-06-20T09:53:02.484Z,45.75
2017-06-20T09:54:02.535Z,44.97
2017-06-20T09:55:02.582Z,44.73
2017-06-20T09:56:02.632Z,44.99
2017-06-20T09:57:02.675Z,45.38
2017-06-20T09:58:02.729Z,45.62
2017-06-20T09:59:02.798Z,45.77
2017-06-20T10:00:02.837Z,45.85
2017-06-20T10:01:02.881Z,45.86
2017-06-20T10:02:02.927Z,45.37
2017-06-20T10:03:02.982Z,44.64
2017-06-20T10:04:03.020Z,44.07
2017-06-20T10:05:03.086Z,43.58
2017-06-20T10:06:03.117Z,42.94
2017-06-20T10:07:03.189Z,42.76
2017-06-20T10:08:03.239Z,42.94
2017-06-20T10:09:03.283Z,42.92
2017-06-20T10:10:03.316Z,42.44
2017-06-20T10:11:03.380Z,41.68
2017-06-20T10:12:03.451Z,41.35
2017-06-20T10:13:03.475Z,41.56
2017-06-20T10:14:03.544Z,41.59
2017-06-20T10:15:03.583Z,41.15
2017-06-20T10:16:03.630Z,40.54
2017-06-20T10:17:03.682Z,40.08
2017-06-20T10:18:03.729Z,40.13
2017-06-20T10:19:03.766Z,40.13
2017-06-20T10:20:03.821Z,40.66
2017-06-20T10:21:03.847Z,41.19
2017-06-20T10:22:03.918Z,41.11
2017-06-20T10:23:03.946Z,40.51
2017-06-20T10:24:04.008Z,40.18
2017-06-20T10:25:04.041Z,40.3
2017-06-20T10:26:04.115Z,40.5
2017-06-20T10:27:04.101Z,40.48
2017-06-20T10:28:04.197Z,40.05
2017-06-20T10:29:04.236Z,39.38
2017-06-20T10:30:04.298Z,38.7
2017-06-20T10:31:04.336Z,38.03
2017-06-20T10:32:04.585Z,37.37
2017-06-20T10:33:04.428Z,36.77
2017-06-20T10:34:04.480Z,36.26
2017-06-20T10:35:04.530Z,36.06
2017-06-20T10:36:04.572Z,36.47
2017-06-20T10:37:04.618Z,37.36
2017-06-20T10:38:04.654Z,38.35
2017-06-20T10:39:04.688Z,39.12
2017-06-20T10:40:04.773Z,39
2017-06-20T10:41:04.798Z,39.68
2017-06-20T10:42:04.847Z,40.54
2017-06-20T10:43:04.868Z,41.61
2017-06-20T10:44:04.937Z,41.98
2017-06-20T10:45:04.994Z,41.68
2017-06-20T10:46:05.011Z,41
2017-06-20T10:47:05.057Z,40.3
2017-06-20T10:48:05.113Z,39.41
2017-06-20T10:49:05.146Z,38.78
2017-06-20T10:50:05.406Z,38.87
2017-06-20T10:51:05.259Z,39.72
2017-06-20T10:52:05.293Z,40.45
2017-06-20T10:53:05.349Z,41.38
2017-06-20T10:54:05.371Z,42.06
2017-06-20T10:55:05.430Z,42.78
2017-06-20T10:56:05.471Z,43.46
2017-06-20T10:57:05.515Z,43.77
2017-06-20T10:58:05.547Z,43.92
2017-06-20T10:59:05.612Z,43.96
2017-06-20T11:00:05.657Z,44.07
2017-06-20T11:01:05.707Z,44.14
2017-06-20T11:02:05.722Z,43.8
2017-06-20T11:03:05.772Z,43.25
2017-06-20T11:04:05.836Z,43.24
2017-06-20T11:05:05.867Z,43.58
2017-06-20T11:06:06.211Z,43.81
2017-06-20T11:07:05.971Z,43.52
2017-06-20T11:08:06.006Z,43.13
2017-06-20T11:09:06.035Z,42.45
2017-06-20T11:10:06.092Z,41.99
2017-06-20T11:11:06.141Z,41.25
2017-06-20T11:12:06.189Z,40.65
2017-06-20T11:13:06.229Z,39.9
2017-06-20T11:14:06.284Z,39.09
2017-06-20T11:15:06.468Z,38.46
2017-06-20T11:16:06.368Z,37.84
2017-06-20T11:17:06.405Z,37.99
2017-06-20T11:18:06.455Z,38.85
2017-06-20T11:19:06.493Z,40.03
2017-06-20T11:20:06.553Z,41.06
2017-06-20T11:21:06.576Z,41.89
2017-06-20T11:22:06.658Z,42.69
2017-06-20T11:23:06.658Z,43.32
2017-06-20T11:24:06.719Z,43.92
2017-06-20T11:25:06.759Z,44.29
2017-06-20T11:26:06.806Z,44.65
2017-06-20T11:27:06.848Z,45.02
2017-06-20T11:28:06.894Z,45.19
2017-06-20T11:29:06.938Z,44.88
2017-06-20T11:30:07.000Z,44.31
2017-06-20T11:31:07.024Z,43.32
2017-06-20T11:32:07.074Z,42.07
2017-06-20T11:33:07.095Z,40.82
2017-06-20T11:34:07.146Z,39.53
2017-06-20T11:35:07.208Z,38.39
2017-06-20T11:36:07.246Z,37.44
2017-06-20T11:37:07.268Z,36.67
2017-06-20T11:38:07.336Z,36.17
2017-06-20T11:39:07.365Z,35.71
2017-06-20T11:40:07.430Z,35.49
2017-06-20T11:41:07.447Z,35.39
2017-06-20T11:42:07.499Z,35.2
2017-06-20T11:43:07.548Z,34.91
2017-06-20T11:44:07.590Z,34.67
2017-06-20T11:45:07.647Z,34.61
2017-06-20T11:46:07.656Z,34.41
2017-06-20T11:47:07.717Z,34.29
2017-06-20T11:48:07.746Z,34.18
2017-06-20T11:49:07.803Z,34.05
2017-06-20T11:50:07.847Z,34.1
2017-06-20T11:51:07.892Z,34.06
2017-06-20T11:52:07.938Z,34.06
2017-06-20T11:53:07.979Z,34
2017-06-20T11:54:08.023Z,33.92
2017-06-20T11:55:08.062Z,33.75
2017-06-20T11:56:08.109Z,33.66
2017-06-20T11:57:08.153Z,33.63
2017-06-20T11:58:08.194Z,33.71
2017-06-20T11:59:08.235Z,33.74
2017-06-20T12:00:08.578Z,33.63
2017-06-20T12:01:08.326Z,33.68
2017-06-20T12:02:08.364Z,33.71
2017-06-20T12:03:08.404Z,33.73
2017-06-20T12:04:08.441Z,33.74
2017-06-20T12:05:08.566Z,33.53
2017-06-20T12:06:08.543Z,33.39
2017-06-20T12:07:08.569Z,33.31
2017-06-20T12:08:08.666Z,33.37
2017-06-20T12:09:08.652Z,33.34
2017-06-20T12:10:08.718Z,33.32
2017-06-20T12:11:08.765Z,33.36
2017-06-20T12:12:08.799Z,33.31
2017-06-20T12:13:08.840Z,33.36
2017-06-20T12:14:08.867Z,33.09
2017-06-20T12:15:08.925Z,33.02
2017-06-20T12:16:08.956Z,33.05
2017-06-20T12:17:09.005Z,33.02
2017-06-20T12:18:09.034Z,32.9
2017-06-20T12:19:09.085Z,32.83
2017-06-20T12:20:09.166Z,32.75
2017-06-20T12:21:09.156Z,32.75
2017-06-20T12:22:09.221Z,32.72
2017-06-20T12:23:09.246Z,32.65
2017-06-20T12:24:09.306Z,32.71
2017-06-20T12:25:09.350Z,32.84
2017-06-20T12:26:09.393Z,32.9
2017-06-20T12:27:09.432Z,33.05
2017-06-20T12:28:09.475Z,33.03
2017-06-20T12:29:09.512Z,33.03
2017-06-20T12:30:09.562Z,32.98
2017-06-20T12:31:09.607Z,32.96
2017-06-20T12:32:09.649Z,32.86
2017-06-20T12:33:09.675Z,32.83
2017-06-20T12:34:09.728Z,32.86
2017-06-20T12:35:09.758Z,32.74
2017-06-20T12:36:09.811Z,32.62
2017-06-20T12:37:09.853Z,32.53
2017-06-20T12:38:09.879Z,32.31
2017-06-20T12:39:09.942Z,32.23
2017-06-20T12:40:09.960Z,32.01
2017-06-20T12:41:10.028Z,32.03
2017-06-20T12:42:10.060Z,32.12
2017-06-20T12:43:10.073Z,32.05
2017-06-20T12:44:10.154Z,32.1
2017-06-20T12:45:10.195Z,32.1
2017-06-20T12:46:10.221Z,32.09
2017-06-20T12:47:10.260Z,31.98
2017-06-20T12:48:10.333Z,31.81
2017-06-20T12:49:10.343Z,31.8
2017-06-20T12:50:10.415Z,31.7
2017-06-20T12:51:10.453Z,31.7
2017-06-20T12:52:10.495Z,31.68
2017-06-20T12:53:10.532Z,31.65
2017-06-20T12:54:10.573Z,31.5
2017-06-20T12:55:10.612Z,31.68
2017-06-20T12:56:10.654Z,31.7